sensor_id;sensor_type;location;lat;lon;timestamp;pressure;altitude;pressure_sealevel;temperature;humidity
21988;BME280;11158;53.404;-1.510;2023-02-17T00:00:28;100354.16;;;14.22;68.08
21988;BME280;11158;53.404;-1.510;2023-02-17T00:02:57;100334.19;;;14.76;66.29
21988;BME280;11158;53.404;-1.510;2023-02-17T00:05:24;100330.72;;;14.69;66.39
21988;BME280;11158;53.404;-1.510;2023-02-17T00:07:50;100327.41;;;14.67;67.09
21988;BME280;11158;53.404;-1.510;2023-02-17T00:10:15;100328.25;;;14.48;67.39
21988;BME280;11158;53.404;-1.510;2023-02-17T00:12:41;100328.41;;;13.74;70.45
21988;BME280;11158;53.404;-1.510;2023-02-17T00:15:07;100332.44;;;14.43;68.14
21988;BME280;11158;53.404;-1.510;2023-02-17T00:17:33;100316.47;;;14.49;68.03
21988;BME280;11158;53.404;-1.510;2023-02-17T00:19:58;100321.25;;;14.40;68.35
21988;BME280;11158;53.404;-1.510;2023-02-17T00:22:24;100315.53;;;14.03;69.56
21988;BME280;11158;53.404;-1.510;2023-02-17T00:24:49;100307.16;;;14.58;67.77
21988;BME280;11158;53.404;-1.510;2023-02-17T00:27:15;100300.44;;;14.80;66.57
21988;BME280;11158;53.404;-1.510;2023-02-17T00:29:41;100296.47;;;14.24;68.22
21988;BME280;11158;53.404;-1.510;2023-02-17T00:32:06;100307.97;;;14.52;67.96
21988;BME280;11158;53.404;-1.510;2023-02-17T00:34:34;100298.13;;;14.84;66.57
21988;BME280;11158;53.404;-1.510;2023-02-17T00:37:00;100302.44;;;14.40;67.17
21988;BME280;11158;53.404;-1.510;2023-02-17T00:39:26;100294.78;;;15.27;65.05
21988;BME280;11158;53.404;-1.510;2023-02-17T00:41:52;100296.47;;;14.90;65.18
21988;BME280;11158;53.404;-1.510;2023-02-17T00:44:20;100293.53;;;14.39;67.61
21988;BME280;11158;53.404;-1.510;2023-02-17T00:46:47;100293.22;;;14.02;68.65
21988;BME280;11158;53.404;-1.510;2023-02-17T00:49:18;100300.28;;;13.77;68.96
21988;BME280;11158;53.404;-1.510;2023-02-17T00:51:45;100311.25;;;14.67;66.26
21988;BME280;11158;53.404;-1.510;2023-02-17T00:54:11;100316.63;;;14.67;66.48
21988;BME280;11158;53.404;-1.510;2023-02-17T00:56:37;100322.81;;;14.74;65.97
21988;BME280;11158;53.404;-1.510;2023-02-17T00:59:03;100309.84;;;14.51;66.29
21988;BME280;11158;53.404;-1.510;2023-02-17T01:01:30;100319.34;;;14.60;66.32
21988;BME280;11158;53.404;-1.510;2023-02-17T01:03:55;100314.88;;;14.93;65.25
21988;BME280;11158;53.404;-1.510;2023-02-17T01:06:24;100314.41;;;14.44;67.10
21988;BME280;11158;53.404;-1.510;2023-02-17T01:08:50;100317.97;;;14.31;68.04
21988;BME280;11158;53.404;-1.510;2023-02-17T01:11:21;100304.78;;;13.96;69.61
21988;BME280;11158;53.404;-1.510;2023-02-17T01:13:46;100311.22;;;13.95;69.55
21988;BME280;11158;53.404;-1.510;2023-02-17T01:16:24;100303.16;;;13.62;70.44
21988;BME280;11158;53.404;-1.510;2023-02-17T01:18:50;100303.59;;;13.66;69.70
21988;BME280;11158;53.404;-1.510;2023-02-17T01:21:24;100278.78;;;13.70;70.17
21988;BME280;11158;53.404;-1.510;2023-02-17T01:23:51;100281.06;;;13.67;70.33
21988;BME280;11158;53.404;-1.510;2023-02-17T01:26:21;100279.94;;;14.21;67.99
21988;BME280;11158;53.404;-1.510;2023-02-17T01:28:47;100283.28;;;14.16;68.58
21988;BME280;11158;53.404;-1.510;2023-02-17T01:31:14;100288.47;;;13.91;69.15
21988;BME280;11158;53.404;-1.510;2023-02-17T01:33:40;100274.66;;;14.66;66.80
21988;BME280;11158;53.404;-1.510;2023-02-17T01:36:07;100272.50;;;14.16;67.28
21988;BME280;11158;53.404;-1.510;2023-02-17T01:38:34;100298.94;;;14.33;67.72
21988;BME280;11158;53.404;-1.510;2023-02-17T01:41:00;100305.16;;;14.27;67.59
21988;BME280;11158;53.404;-1.510;2023-02-17T01:43:25;100293.34;;;14.34;67.31
21988;BME280;11158;53.404;-1.510;2023-02-17T01:48:21;100286.41;;;14.00;68.13
21988;BME280;11158;53.404;-1.510;2023-02-17T01:50:58;100280.03;;;13.74;68.93
21988;BME280;11158;53.404;-1.510;2023-02-17T01:53:36;100276.41;;;14.85;65.39
21988;BME280;11158;53.404;-1.510;2023-02-17T01:56:04;100286.22;;;13.55;69.30
21988;BME280;11158;53.404;-1.510;2023-02-17T01:58:30;100293.75;;;14.31;66.66
21988;BME280;11158;53.404;-1.510;2023-02-17T02:00:59;100288.91;;;13.88;68.20
21988;BME280;11158;53.404;-1.510;2023-02-17T02:03:27;100293.22;;;14.09;67.94
21988;BME280;11158;53.404;-1.510;2023-02-17T02:05:54;100279.63;;;14.49;65.67
21988;BME280;11158;53.404;-1.510;2023-02-17T02:08:19;100264.34;;;13.38;68.82
21988;BME280;11158;53.404;-1.510;2023-02-17T02:10:45;100261.88;;;13.50;68.75
21988;BME280;11158;53.404;-1.510;2023-02-17T02:13:11;100265.63;;;14.34;66.66
21988;BME280;11158;53.404;-1.510;2023-02-17T02:16:00;100254.16;;;13.93;67.17
21988;BME280;11158;53.404;-1.510;2023-02-17T02:21:17;100248.78;;;14.00;66.62
21988;BME280;11158;53.404;-1.510;2023-02-17T02:23:57;100256.06;;;13.39;68.27
21988;BME280;11158;53.404;-1.510;2023-02-17T02:32:24;100255.31;;;14.31;65.41
21988;BME280;11158;53.404;-1.510;2023-02-17T02:37:32;100250.19;;;14.16;65.19
21988;BME280;11158;53.404;-1.510;2023-02-17T02:40:02;100227.13;;;13.75;66.40
21988;BME280;11158;53.404;-1.510;2023-02-17T02:42:31;100243.25;;;13.75;66.92
21988;BME280;11158;53.404;-1.510;2023-02-17T02:44:57;100240.31;;;13.90;65.81
21988;BME280;11158;53.404;-1.510;2023-02-17T02:50:11;100242.81;;;13.91;64.89
21988;BME280;11158;53.404;-1.510;2023-02-17T02:58:27;100237.47;;;13.65;65.46
21988;BME280;11158;53.404;-1.510;2023-02-17T03:01:05;100245.97;;;14.33;63.25
21988;BME280;11158;53.404;-1.510;2023-02-17T03:08:44;100256.88;;;13.80;64.17
21988;BME280;11158;53.404;-1.510;2023-02-17T03:11:13;100251.50;;;13.87;64.59
21988;BME280;11158;53.404;-1.510;2023-02-17T03:14:14;100236.78;;;14.61;61.61
21988;BME280;11158;53.404;-1.510;2023-02-17T03:16:41;100243.47;;;13.67;64.59
21988;BME280;11158;53.404;-1.510;2023-02-17T03:19:08;100228.75;;;13.89;64.34
21988;BME280;11158;53.404;-1.510;2023-02-17T03:21:57;100219.63;;;14.03;63.43
21988;BME280;11158;53.404;-1.510;2023-02-17T03:24:24;100219.63;;;13.90;63.99
21988;BME280;11158;53.404;-1.510;2023-02-17T03:26:49;100214.00;;;14.18;63.03
21988;BME280;11158;53.404;-1.510;2023-02-17T03:29:15;100197.63;;;14.20;63.36
21988;BME280;11158;53.404;-1.510;2023-02-17T03:31:41;100199.97;;;14.03;63.83
21988;BME280;11158;53.404;-1.510;2023-02-17T03:34:07;100169.94;;;13.61;64.40
21988;BME280;11158;53.404;-1.510;2023-02-17T03:36:33;100181.59;;;14.07;63.37
21988;BME280;11158;53.404;-1.510;2023-02-17T03:38:59;100185.28;;;14.06;63.65
21988;BME280;11158;53.404;-1.510;2023-02-17T03:41:26;100172.59;;;14.71;61.63
21988;BME280;11158;53.404;-1.510;2023-02-17T03:43:52;100185.75;;;13.89;63.36
21988;BME280;11158;53.404;-1.510;2023-02-17T03:46:17;100178.72;;;14.85;60.81
21988;BME280;11158;53.404;-1.510;2023-02-17T03:48:43;100176.88;;;14.40;62.34
21988;BME280;11158;53.404;-1.510;2023-02-17T03:51:14;100174.25;;;13.69;64.55
21988;BME280;11158;53.404;-1.510;2023-02-17T03:53:41;100167.69;;;14.16;62.68
21988;BME280;11158;53.404;-1.510;2023-02-17T03:56:07;100155.63;;;14.32;62.98
21988;BME280;11158;53.404;-1.510;2023-02-17T03:58:33;100154.09;;;14.81;61.10
21988;BME280;11158;53.404;-1.510;2023-02-17T04:00:59;100162.16;;;14.81;61.08
21988;BME280;11158;53.404;-1.510;2023-02-17T04:03:25;100156.06;;;14.68;61.39
21988;BME280;11158;53.404;-1.510;2023-02-17T04:05:50;100157.84;;;14.42;61.98
21988;BME280;11158;53.404;-1.510;2023-02-17T04:08:16;100145.66;;;14.78;61.43
21988;BME280;11158;53.404;-1.510;2023-02-17T04:10:42;100140.09;;;14.34;61.98
21988;BME280;11158;53.404;-1.510;2023-02-17T04:13:09;100138.34;;;13.56;65.06
21988;BME280;11158;53.404;-1.510;2023-02-17T04:15:34;100130.13;;;14.80;61.14
21988;BME280;11158;53.404;-1.510;2023-02-17T04:18:00;100125.41;;;14.75;61.18
21988;BME280;11158;53.404;-1.510;2023-02-17T04:20:26;100121.56;;;14.90;60.80
21988;BME280;11158;53.404;-1.510;2023-02-17T04:22:51;100108.13;;;14.51;62.26
21988;BME280;11158;53.404;-1.510;2023-02-17T04:25:17;100122.88;;;14.42;62.05
21988;BME280;11158;53.404;-1.510;2023-02-17T04:27:42;100114.50;;;14.88;60.78
21988;BME280;11158;53.404;-1.510;2023-02-17T04:30:08;100123.91;;;15.48;59.36
21988;BME280;11158;53.404;-1.510;2023-02-17T04:32:34;100129.97;;;15.18;59.82
21988;BME280;11158;53.404;-1.510;2023-02-17T04:35:00;100129.75;;;15.45;59.65
21988;BME280;11158;53.404;-1.510;2023-02-17T04:37:25;100129.91;;;15.68;58.74
21988;BME280;11158;53.404;-1.510;2023-02-17T04:39:51;100124.59;;;15.99;57.43
21988;BME280;11158;53.404;-1.510;2023-02-17T04:42:16;100116.84;;;16.21;57.11
21988;BME280;11158;53.404;-1.510;2023-02-17T04:44:42;100118.31;;;16.65;55.46
21988;BME280;11158;53.404;-1.510;2023-02-17T04:47:07;100107.13;;;16.20;56.82
21988;BME280;11158;53.404;-1.510;2023-02-17T04:49:33;100099.47;;;16.17;56.94
21988;BME280;11158;53.404;-1.510;2023-02-17T04:51:59;100095.63;;;15.39;59.07
21988;BME280;11158;53.404;-1.510;2023-02-17T04:54:24;100095.19;;;15.97;58.12
21988;BME280;11158;53.404;-1.510;2023-02-17T04:56:50;100094.28;;;15.66;58.95
21988;BME280;11158;53.404;-1.510;2023-02-17T04:59:15;100087.84;;;15.49;59.83
21988;BME280;11158;53.404;-1.510;2023-02-17T05:01:41;100088.53;;;15.44;59.79
21988;BME280;11158;53.404;-1.510;2023-02-17T05:04:06;100072.44;;;15.93;58.32
21988;BME280;11158;53.404;-1.510;2023-02-17T05:06:32;100080.50;;;15.38;59.66
21988;BME280;11158;53.404;-1.510;2023-02-17T05:08:57;100064.72;;;15.60;58.81
21988;BME280;11158;53.404;-1.510;2023-02-17T05:11:23;100062.03;;;15.41;59.67
21988;BME280;11158;53.404;-1.510;2023-02-17T05:13:49;100056.91;;;14.96;61.08
21988;BME280;11158;53.404;-1.510;2023-02-17T05:16:14;100071.91;;;15.29;59.89
21988;BME280;11158;53.404;-1.510;2023-02-17T05:18:40;100060.59;;;15.57;59.50
21988;BME280;11158;53.404;-1.510;2023-02-17T05:21:05;100089.16;;;15.03;60.63
21988;BME280;11158;53.404;-1.510;2023-02-17T05:23:31;100079.91;;;14.67;62.80
21988;BME280;11158;53.404;-1.510;2023-02-17T05:25:57;100084.09;;;15.68;59.34
21988;BME280;11158;53.404;-1.510;2023-02-17T05:28:22;100078.91;;;16.34;57.23
21988;BME280;11158;53.404;-1.510;2023-02-17T05:30:48;100090.84;;;15.78;58.58
21988;BME280;11158;53.404;-1.510;2023-02-17T05:33:14;100088.56;;;16.11;57.58
21988;BME280;11158;53.404;-1.510;2023-02-17T05:35:40;100103.53;;;16.07;57.98
21988;BME280;11158;53.404;-1.510;2023-02-17T05:38:05;100111.78;;;15.57;59.29
21988;BME280;11158;53.404;-1.510;2023-02-17T05:40:31;100106.31;;;15.64;59.73
21988;BME280;11158;53.404;-1.510;2023-02-17T05:42:57;100116.00;;;15.53;59.55
21988;BME280;11158;53.404;-1.510;2023-02-17T05:45:22;100112.81;;;14.69;62.34
21988;BME280;11158;53.404;-1.510;2023-02-17T05:47:48;100119.66;;;14.65;62.70
21988;BME280;11158;53.404;-1.510;2023-02-17T05:50:13;100122.56;;;15.14;61.14
21988;BME280;11158;53.404;-1.510;2023-02-17T05:52:39;100099.47;;;15.06;61.42
21988;BME280;11158;53.404;-1.510;2023-02-17T05:55:05;100102.59;;;15.03;61.08
21988;BME280;11158;53.404;-1.510;2023-02-17T05:57:31;100129.81;;;14.63;63.40
21988;BME280;11158;53.404;-1.510;2023-02-17T05:59:57;100130.47;;;14.58;63.17
21988;BME280;11158;53.404;-1.510;2023-02-17T06:02:23;100119.56;;;15.28;61.36
21988;BME280;11158;53.404;-1.510;2023-02-17T06:04:48;100101.28;;;14.62;62.91
21988;BME280;11158;53.404;-1.510;2023-02-17T06:07:17;100120.59;;;14.45;63.16
21988;BME280;11158;53.404;-1.510;2023-02-17T06:09:43;100131.09;;;14.85;61.71
21988;BME280;11158;53.404;-1.510;2023-02-17T06:12:08;100112.19;;;15.17;61.38
21988;BME280;11158;53.404;-1.510;2023-02-17T06:14:34;100119.81;;;14.70;62.94
21988;BME280;11158;53.404;-1.510;2023-02-17T06:16:59;100101.44;;;14.67;63.17
21988;BME280;11158;53.404;-1.510;2023-02-17T06:19:28;100109.41;;;14.80;62.64
21988;BME280;11158;53.404;-1.510;2023-02-17T06:21:54;100099.97;;;14.71;63.07
21988;BME280;11158;53.404;-1.510;2023-02-17T06:24:21;100080.47;;;14.44;64.17
21988;BME280;11158;53.404;-1.510;2023-02-17T06:26:47;100106.97;;;14.72;63.64
21988;BME280;11158;53.404;-1.510;2023-02-17T06:29:14;100108.69;;;15.17;61.52
21988;BME280;11158;53.404;-1.510;2023-02-17T06:31:39;100108.19;;;14.76;63.41
21988;BME280;11158;53.404;-1.510;2023-02-17T06:34:05;100087.78;;;15.37;61.01
21988;BME280;11158;53.404;-1.510;2023-02-17T06:36:30;100074.00;;;13.81;65.49
21988;BME280;11158;53.404;-1.510;2023-02-17T06:38:56;100083.44;;;14.29;64.78
21988;BME280;11158;53.404;-1.510;2023-02-17T06:41:22;100084.41;;;15.60;60.60
21988;BME280;11158;53.404;-1.510;2023-02-17T06:43:47;100078.91;;;14.86;62.91
21988;BME280;11158;53.404;-1.510;2023-02-17T06:46:13;100060.75;;;14.57;64.34
21988;BME280;11158;53.404;-1.510;2023-02-17T06:48:38;100062.03;;;14.16;65.30
21988;BME280;11158;53.404;-1.510;2023-02-17T06:51:04;100036.81;;;14.17;64.82
21988;BME280;11158;53.404;-1.510;2023-02-17T06:53:30;100037.78;;;13.91;66.04
21988;BME280;11158;53.404;-1.510;2023-02-17T06:55:55;100015.56;;;15.09;62.21
21988;BME280;11158;53.404;-1.510;2023-02-17T06:58:21;100028.50;;;13.87;65.58
21988;BME280;11158;53.404;-1.510;2023-02-17T07:00:47;100010.91;;;14.54;64.55
21988;BME280;11158;53.404;-1.510;2023-02-17T07:03:12;100012.69;;;14.03;65.08
21988;BME280;11158;53.404;-1.510;2023-02-17T07:05:38;100015.88;;;14.51;63.92
21988;BME280;11158;53.404;-1.510;2023-02-17T07:08:05;100039.13;;;14.38;64.38
21988;BME280;11158;53.404;-1.510;2023-02-17T07:10:31;100039.41;;;14.62;63.61
21988;BME280;11158;53.404;-1.510;2023-02-17T07:12:57;100016.47;;;14.28;64.59
21988;BME280;11158;53.404;-1.510;2023-02-17T07:15:23;100043.88;;;14.68;63.75
21988;BME280;11158;53.404;-1.510;2023-02-17T07:17:48;100033.66;;;14.52;63.86
21988;BME280;11158;53.404;-1.510;2023-02-17T07:20:14;100023.59;;;14.72;63.74
21988;BME280;11158;53.404;-1.510;2023-02-17T07:22:39;100029.59;;;14.42;64.22
21988;BME280;11158;53.404;-1.510;2023-02-17T07:25:05;100008.41;;;15.40;61.79
21988;BME280;11158;53.404;-1.510;2023-02-17T07:27:34;99996.84;;;14.77;63.44
21988;BME280;11158;53.404;-1.510;2023-02-17T07:30:00;99982.44;;;14.40;65.14
21988;BME280;11158;53.404;-1.510;2023-02-17T07:32:25;100006.22;;;14.18;65.67
21988;BME280;11158;53.404;-1.510;2023-02-17T07:34:51;100012.16;;;14.77;63.91
21988;BME280;11158;53.404;-1.510;2023-02-17T07:37:16;99992.59;;;14.38;63.85
21988;BME280;11158;53.404;-1.510;2023-02-17T07:39:44;100011.25;;;14.64;63.61
21988;BME280;11158;53.404;-1.510;2023-02-17T07:42:09;100002.81;;;14.79;62.94
21988;BME280;11158;53.404;-1.510;2023-02-17T07:44:35;100014.28;;;14.93;63.17
21988;BME280;11158;53.404;-1.510;2023-02-17T07:47:01;100013.53;;;14.29;64.12
21988;BME280;11158;53.404;-1.510;2023-02-17T07:49:27;99992.84;;;15.05;61.82
21988;BME280;11158;53.404;-1.510;2023-02-17T07:51:52;99960.13;;;14.39;63.23
21988;BME280;11158;53.404;-1.510;2023-02-17T07:54:18;99994.06;;;14.65;62.76
21988;BME280;11158;53.404;-1.510;2023-02-17T07:56:43;99988.22;;;15.31;59.93
21988;BME280;11158;53.404;-1.510;2023-02-17T07:59:11;99972.16;;;14.62;62.39
21988;BME280;11158;53.404;-1.510;2023-02-17T08:01:37;99983.94;;;15.04;61.06
21988;BME280;11158;53.404;-1.510;2023-02-17T08:04:03;99942.78;;;14.35;62.35
21988;BME280;11158;53.404;-1.510;2023-02-17T08:06:29;99988.53;;;14.29;63.26
21988;BME280;11158;53.404;-1.510;2023-02-17T08:08:55;99991.63;;;14.82;60.65
21988;BME280;11158;53.404;-1.510;2023-02-17T08:11:40;99967.44;;;14.00;62.39
21988;BME280;11158;53.404;-1.510;2023-02-17T08:14:27;99962.66;;;15.21;59.77
21988;BME280;11158;53.404;-1.510;2023-02-17T08:16:53;99971.66;;;14.72;61.26
21988;BME280;11158;53.404;-1.510;2023-02-17T08:19:19;99938.28;;;14.54;62.86
21988;BME280;11158;53.404;-1.510;2023-02-17T08:21:45;99956.06;;;14.80;62.18
21988;BME280;11158;53.404;-1.510;2023-02-17T08:24:11;99935.28;;;13.87;64.25
21988;BME280;11158;53.404;-1.510;2023-02-17T08:26:37;99940.69;;;14.37;62.70
21988;BME280;11158;53.404;-1.510;2023-02-17T08:29:02;99948.16;;;13.78;64.36
21988;BME280;11158;53.404;-1.510;2023-02-17T08:31:33;99947.78;;;14.07;63.21
21988;BME280;11158;53.404;-1.510;2023-02-17T08:34:05;99943.50;;;14.24;62.29
21988;BME280;11158;53.404;-1.510;2023-02-17T08:36:31;99931.38;;;14.65;61.07
21988;BME280;11158;53.404;-1.510;2023-02-17T08:38:57;99921.50;;;14.77;60.38
21988;BME280;11158;53.404;-1.510;2023-02-17T08:41:27;99932.22;;;14.09;62.45
21988;BME280;11158;53.404;-1.510;2023-02-17T08:43:57;99906.25;;;14.02;61.26
21988;BME280;11158;53.404;-1.510;2023-02-17T08:46:23;99910.38;;;14.05;61.24
21988;BME280;11158;53.404;-1.510;2023-02-17T08:48:49;99887.69;;;13.94;61.08
21988;BME280;11158;53.404;-1.510;2023-02-17T08:51:18;99887.53;;;13.89;61.43
21988;BME280;11158;53.404;-1.510;2023-02-17T08:53:48;99912.94;;;13.93;60.63
21988;BME280;11158;53.404;-1.510;2023-02-17T08:56:15;99920.31;;;14.55;58.69
21988;BME280;11158;53.404;-1.510;2023-02-17T08:58:41;99883.88;;;14.52;58.34
21988;BME280;11158;53.404;-1.510;2023-02-17T09:01:06;99907.56;;;13.93;60.03
21988;BME280;11158;53.404;-1.510;2023-02-17T09:03:36;99927.34;;;14.49;58.63
21988;BME280;11158;53.404;-1.510;2023-02-17T09:06:03;99887.50;;;14.64;58.52
21988;BME280;11158;53.404;-1.510;2023-02-17T09:08:28;99893.69;;;15.02;56.67
21988;BME280;11158;53.404;-1.510;2023-02-17T09:10:55;99917.91;;;14.40;57.89
21988;BME280;11158;53.404;-1.510;2023-02-17T09:13:20;99895.56;;;15.01;55.93
21988;BME280;11158;53.404;-1.510;2023-02-17T09:15:46;99915.38;;;14.88;55.85
21988;BME280;11158;53.404;-1.510;2023-02-17T09:18:12;99895.81;;;14.81;55.41
21988;BME280;11158;53.404;-1.510;2023-02-17T09:20:38;99899.47;;;15.05;54.39
21988;BME280;11158;53.404;-1.510;2023-02-17T09:23:04;99850.91;;;14.38;55.83
21988;BME280;11158;53.404;-1.510;2023-02-17T09:25:30;99884.06;;;15.43;53.88
21988;BME280;11158;53.404;-1.510;2023-02-17T09:27:55;99891.59;;;15.53;53.79
21988;BME280;11158;53.404;-1.510;2023-02-17T09:30:21;99838.41;;;14.87;54.03
21988;BME280;11158;53.404;-1.510;2023-02-17T09:32:46;99876.38;;;14.61;55.15
21988;BME280;11158;53.404;-1.510;2023-02-17T09:35:14;99888.78;;;14.62;55.45
21988;BME280;11158;53.404;-1.510;2023-02-17T09:37:39;99898.56;;;14.75;54.84
21988;BME280;11158;53.404;-1.510;2023-02-17T09:40:07;99919.41;;;14.61;55.29
21988;BME280;11158;53.404;-1.510;2023-02-17T09:42:36;99924.97;;;14.41;55.43
21988;BME280;11158;53.404;-1.510;2023-02-17T09:45:07;99932.56;;;14.69;54.65
21988;BME280;11158;53.404;-1.510;2023-02-17T09:47:47;99937.97;;;14.87;55.12
21988;BME280;11158;53.404;-1.510;2023-02-17T09:50:18;99958.19;;;14.21;56.39
21988;BME280;11158;53.404;-1.510;2023-02-17T09:52:53;99959.63;;;14.49;55.68
21988;BME280;11158;53.404;-1.510;2023-02-17T09:55:25;99946.38;;;14.48;55.55
21988;BME280;11158;53.404;-1.510;2023-02-17T09:58:32;99965.97;;;14.61;54.93
21988;BME280;11158;53.404;-1.510;2023-02-17T10:01:01;99979.09;;;15.13;53.95
21988;BME280;11158;53.404;-1.510;2023-02-17T10:03:38;99990.91;;;15.12;53.97
21988;BME280;11158;53.404;-1.510;2023-02-17T10:06:19;100031.50;;;14.35;56.10
21988;BME280;11158;53.404;-1.510;2023-02-17T10:08:53;100003.47;;;14.50;55.57
21988;BME280;11158;53.404;-1.510;2023-02-17T10:12:03;99976.63;;;14.68;55.29
21988;BME280;11158;53.404;-1.510;2023-02-17T10:17:14;100014.44;;;14.55;55.88
21988;BME280;11158;53.404;-1.510;2023-02-17T10:19:55;100087.81;;;15.12;54.43
21988;BME280;11158;53.404;-1.510;2023-02-17T10:22:25;100057.69;;;16.38;51.29
21988;BME280;11158;53.404;-1.510;2023-02-17T10:24:52;100067.94;;;15.68;52.46
21988;BME280;11158;53.404;-1.510;2023-02-17T10:35:16;100165.63;;;15.39;53.51
21988;BME280;11158;53.404;-1.510;2023-02-17T10:37:54;100148.63;;;14.95;53.35
21988;BME280;11158;53.404;-1.510;2023-02-17T10:40:27;100154.09;;;14.81;53.56
21988;BME280;11158;53.404;-1.510;2023-02-17T10:42:59;100162.06;;;15.45;52.40
21988;BME280;11158;53.404;-1.510;2023-02-17T10:45:41;100194.84;;;15.17;53.54
21988;BME280;11158;53.404;-1.510;2023-02-17T10:48:12;100196.88;;;15.90;51.86
21988;BME280;11158;53.404;-1.510;2023-02-17T10:50:41;100198.41;;;16.65;50.03
21988;BME280;11158;53.404;-1.510;2023-02-17T10:53:20;100207.69;;;16.39;50.42
21988;BME280;11158;53.404;-1.510;2023-02-17T10:58:18;100223.69;;;15.10;54.34
21988;BME280;11158;53.404;-1.510;2023-02-17T11:00:51;100242.69;;;14.83;54.94
21988;BME280;11158;53.404;-1.510;2023-02-17T11:03:22;100248.44;;;15.18;53.79
21988;BME280;11158;53.404;-1.510;2023-02-17T11:05:53;100243.34;;;15.10;53.71
21988;BME280;11158;53.404;-1.510;2023-02-17T11:08:43;100233.88;;;14.69;54.81
21988;BME280;11158;53.404;-1.510;2023-02-17T11:11:26;100288.72;;;15.88;51.22
21988;BME280;11158;53.404;-1.510;2023-02-17T11:14:18;100321.53;;;16.47;50.43
21988;BME280;11158;53.404;-1.510;2023-02-17T11:16:48;100334.88;;;16.61;49.85
21988;BME280;11158;53.404;-1.510;2023-02-17T11:19:24;100356.88;;;16.76;48.58
21988;BME280;11158;53.404;-1.510;2023-02-17T11:21:55;100388.94;;;15.79;51.33
21988;BME280;11158;53.404;-1.510;2023-02-17T11:24:21;100404.72;;;15.68;51.80
21988;BME280;11158;53.404;-1.510;2023-02-17T11:27:00;100419.19;;;16.74;48.87
21988;BME280;11158;53.404;-1.510;2023-02-17T11:29:27;100412.63;;;16.89;48.34
21988;BME280;11158;53.404;-1.510;2023-02-17T11:34:22;100440.44;;;17.08;48.73
21988;BME280;11158;53.404;-1.510;2023-02-17T11:39:28;100476.13;;;17.10;47.87
21988;BME280;11158;53.404;-1.510;2023-02-17T11:41:54;100484.38;;;17.33;47.18
21988;BME280;11158;53.404;-1.510;2023-02-17T11:44:27;100490.16;;;16.57;48.92
21988;BME280;11158;53.404;-1.510;2023-02-17T11:54:58;100505.34;;;16.51;49.15
21988;BME280;11158;53.404;-1.510;2023-02-17T11:57:37;100513.34;;;17.26;47.98
21988;BME280;11158;53.404;-1.510;2023-02-17T12:06:12;100566.31;;;15.95;52.02
21988;BME280;11158;53.404;-1.510;2023-02-17T12:11:30;100611.22;;;16.46;50.81
21988;BME280;11158;53.404;-1.510;2023-02-17T12:22:42;100642.34;;;15.25;52.67
21988;BME280;11158;53.404;-1.510;2023-02-17T12:25:25;100644.84;;;14.67;53.58
21988;BME280;11158;53.404;-1.510;2023-02-17T12:28:14;100663.72;;;14.94;52.98
21988;BME280;11158;53.404;-1.510;2023-02-17T12:31:14;100656.88;;;14.71;52.30
21988;BME280;11158;53.404;-1.510;2023-02-17T12:34:01;100662.03;;;15.33;51.68
21988;BME280;11158;53.404;-1.510;2023-02-17T12:36:36;100657.41;;;14.46;51.88
21988;BME280;11158;53.404;-1.510;2023-02-17T12:39:16;100661.97;;;13.91;53.64
21988;BME280;11158;53.404;-1.510;2023-02-17T12:41:53;100658.59;;;14.24;52.27
21988;BME280;11158;53.404;-1.510;2023-02-17T12:44:25;100654.84;;;13.70;53.36
21988;BME280;11158;53.404;-1.510;2023-02-17T12:46:55;100677.34;;;14.11;52.34
21988;BME280;11158;53.404;-1.510;2023-02-17T12:54:48;100661.41;;;14.57;50.13
21988;BME280;11158;53.404;-1.510;2023-02-17T12:57:24;100671.56;;;14.75;49.82
21988;BME280;11158;53.404;-1.510;2023-02-17T12:59:52;100684.31;;;13.92;51.30
21988;BME280;11158;53.404;-1.510;2023-02-17T13:02:20;100696.44;;;14.29;50.47
21988;BME280;11158;53.404;-1.510;2023-02-17T13:04:50;100681.19;;;14.36;49.91
21988;BME280;11158;53.404;-1.510;2023-02-17T13:08:13;100691.50;;;14.33;49.48
21988;BME280;11158;53.404;-1.510;2023-02-17T13:10:36;100696.56;;;14.56;49.42
21988;BME280;11158;53.404;-1.510;2023-02-17T13:13:11;100707.56;;;14.74;49.08
21988;BME280;11158;53.404;-1.510;2023-02-17T13:15:44;100714.00;;;14.80;47.95
21988;BME280;11158;53.404;-1.510;2023-02-17T13:18:11;100715.28;;;15.04;47.76
21988;BME280;11158;53.404;-1.510;2023-02-17T13:20:53;100735.69;;;14.65;48.82
21988;BME280;11158;53.404;-1.510;2023-02-17T13:23:40;100716.09;;;15.11;47.41
21988;BME280;11158;53.404;-1.510;2023-02-17T13:26:24;100714.66;;;15.15;47.33
21988;BME280;11158;53.404;-1.510;2023-02-17T13:29:07;100723.31;;;14.84;47.03
21988;BME280;11158;53.404;-1.510;2023-02-17T13:36:56;100715.47;;;15.02;46.77
21988;BME280;11158;53.404;-1.510;2023-02-17T13:41:53;100700.78;;;15.18;46.45
21988;BME280;11158;53.404;-1.510;2023-02-17T13:47:12;100710.72;;;15.18;45.96
21988;BME280;11158;53.404;-1.510;2023-02-17T13:49:39;100694.94;;;14.68;46.71
21988;BME280;11158;53.404;-1.510;2023-02-17T13:52:14;100715.88;;;14.18;48.38
21988;BME280;11158;53.404;-1.510;2023-02-17T13:54:53;100720.00;;;14.82;46.87
21988;BME280;11158;53.404;-1.510;2023-02-17T13:57:33;100720.63;;;14.71;46.74
21988;BME280;11158;53.404;-1.510;2023-02-17T14:02:45;100726.84;;;14.78;46.13
21988;BME280;11158;53.404;-1.510;2023-02-17T14:05:20;100735.31;;;14.81;46.01
21988;BME280;11158;53.404;-1.510;2023-02-17T14:08:13;100730.59;;;15.03;45.25
21988;BME280;11158;53.404;-1.510;2023-02-17T14:10:41;100737.63;;;14.98;45.59
21988;BME280;11158;53.404;-1.510;2023-02-17T14:13:11;100733.44;;;14.69;45.79
21988;BME280;11158;53.404;-1.510;2023-02-17T14:15:48;100743.75;;;14.58;46.15
21988;BME280;11158;53.404;-1.510;2023-02-17T14:18:30;100746.97;;;15.28;44.68
21988;BME280;11158;53.404;-1.510;2023-02-17T14:21:05;100761.34;;;14.61;46.31
21988;BME280;11158;53.404;-1.510;2023-02-17T14:23:51;100764.78;;;15.36;44.81